22ème Rallye Terre des Causses
Championnat de France des Rallyes sur Terre
1 1 CUOQ Jean-Marie/GRANDEMANGE Marielle Citroën C4 WRC FA 8W 22:56,7 1
2 3 MAURIN Julien/URAL Olivier Citroën DS3 WRC A 8W 23:16,5 +00:19,8 +00:19,8 1
3 4 DURBEC Thibault/RENUCCI Jacques-Julien Citroën DS3 WRC A 8W 23:45,7 +00:49,0 +00:29,2 1
4 11 GILBERT Quentin/JAMOUL Renaud Skoda Fabia R5 R 5 24:17,0 +01:20,3 +00:31,3
5 14 FALCO Jean-Marc/BOUERI Jonathan Peugeot 208 T16 R 5 24:17,1 +01:20,4 +00:00,1 1
6 18 PONS Xavier/ORIOL Julia Peugeot 208 T16 R 5 24:20,2 +01:23,5 +00:03,1
7 12 BERFA Jordan/AUGUSTIN Damien HUYNDAI i20 R5 R 5 24:32,0 +01:35,3 +00:11,8 1
8 9 FERAUD Cyrille/DUCHEMIN Aymeric Citroën C4 WRC FA 8W 25:19,7 +02:23,0 +00:47,7 1
9 5 CHAYNES Gary/TRIBOUT Christian Citroën C4 WRC FA 8W 25:24,2 +02:27,5 +00:04,5 1
10 16 PETIT Jean-Eric/MAURIN Mathieu Ford Fiesta R5 R 5 25:37,3 +02:40,6 +00:13,1 1
11 38 MOREL Jean-Luc/GIDEL Philippe Subaru Impreza WRX FN 4 25:42,6 +02:45,9 +00:05,3
12 7 CLOT Charles/LEON Thierry Ford Fiesta WRC A 8W 25:45,8 +02:49,1 +00:03,2 1
13 56 DE MEVIUS Guillaume/LOUKA Louis Peugeot 208 VTI R 2 25:46,9 +02:50,2 +00:01,1 3
14 54 PELLIER Laurent/NEYRET-GIGOT Benoît Peugeot 208 VTI R 2 25:49,2 +02:52,5 +00:02,3 3
15 59 RIBAUD Quentin/BALME Benoît Peugeot 208 VTI R 2 25:54,2 +02:57,5 +00:05,0 1 2 3
16 40 MARTI Christian/LAVIALE Jean-Marc Mitsubishi Lancer Evo9 N 4 25:55,5 +02:58,8 +00:01,3 1
17 60 LARIO Taisko/RYYNANEN Sami Peugeot 208 VTI R 2 26:01,7 +03:05,0 +00:06,2 3
18 61 GAGO Diogo/DEL BARRIO GARCIA Rodolfo Peugeot 208 VTI R 2 26:03,1 +03:06,4 +00:01,4 3
19 57 LLARENA Efren/FERNANDEZ Sara Peugeot 208 VTI R 2 26:06,4 +03:09,7 +00:03,3 3
20 50 VEYRARD Didier/TARDY Vincent Subaru Impreza STI FN 4 26:11,8 +03:15,1 +00:05,4
21 21 GIRAUD Emmanuel/GIRAUD Grégory Mitsubishi Lancer Evo8 FA 8 26:11,8 +03:15,1
22 19 MORDACQ Arnaud/RATIER Marie-Noelle Mitsubishi Lancer Evo9 N 4 26:13,7 +03:17,0 +00:01,9 1
23 37 DESANGLES Yanis/THERON Nicolas Subaru Impreza WRX R 4 26:13,8 +03:17,1 +00:00,1
24 27 TARDY Guillaume/CHOUDEY Marc-Emilien Subaru Impreza FA 8 26:19,3 +03:22,6 +00:05,5
25 36 SALIN Daniel/SALIN Brigitte Subaru Impreza WRX R 4 26:20,8 +03:24,1 +00:01,5
26 6 ROUSSET Eric/GOSSET Jean-David Citroën Xsara WRC FA 8W 26:21,6 +03:24,9 +00:00,8
27 62 SAHILA Aki/SUORSA Rami Peugeot 208 VTI R 2 26:24,0 +03:27,3 +00:02,4 3
28 39 BENIER Thomas/PRASSE Cédric Subaru Impreza WRX N 4 26:28,0 +03:31,3 +00:04,0 1
29 17 FRAU Richard/GASTINEL Jean-Francois Ford Fiesta R5 R 5 26:29,2 +03:32,5 +00:01,2 1
30 15 BESSON Jean-Pascal/ROISSAC Patrice Skoda Fabia R5 R 5 26:30,7 +03:34,0 +00:01,5 1
31 8 RAOUX Jean-Michel/MAGAT Laurent Citroën DS3 WRC A 8W 26:31,6 +03:34,9 +00:00,9 1
32 41 FONTAINE Fabien/FONTAINE Bastien Mitsubishi Lancer Evo5 FN 4 26:43,7 +03:47,0 +00:12,1
33 20 GAIDOZ Hervé/RICHARD François Subaru Impreza WRX FA 8 26:48,2 +03:51,5 +00:04,5 1
34 42 CONDAMINES Florian/DELMAS Cyril Subaru Impreza N 4 26:51,6 +03:54,9 +00:03,4
35 43 PUEL Gérard/PUEL Caroline Mitsubishi Lancer Evo8 FN 4 26:53,7 +03:57,0 +00:02,1
36 63 WAGEMANS Joachim/DU PAN Anton Peugeot 208 VTI R 2 26:53,8 +03:57,1 +00:00,1 3
37 10 "PIANO"/COTTU Paolo Subaru Impreza WRC FA 8W 26:53,9 +03:57,2 +00:00,1
38 30 CHIAVARO Daniel/DUPANLOUP Alexandra Subaru Impreza Sti FA 8 26:57,3 +04:00,6 +00:03,4
39 72 TAVENEAU Sam/POINT Clément Peugeot 208 VTI R 2 27:00,1 +04:03,4 +00:02,8 3
40 53 VITAL Jean-Pierre/DECOUZON Pierre Citroën Saxo VTS F2 13 27:03,9 +04:07,2 +00:03,8 1 2
41 116 RAYNAUD Gabriel/JULIEN William Seat Ibiza GTI F2 14 27:06,7 +04:10,0 +00:02,8 1 2
42 70 PINHEIRO Karl-Alexandre/LE FLOCH Franck Peugeot 208 VTI R 2 27:08,0 +04:11,3 +00:01,3 3
43 65 BOSCH Florentin/LAZZARINI Jean-Paul Peugeot 208 VTI R 2 27:08,7 +04:12,0 +00:00,7 3
44 83 MARCHAL Eddy/JOLE Damien Citroën Saxo T4 FA 6K 27:09,8 +04:13,1 +00:01,1 1
45 64 HAIGH-SMITH Ashley/BURNS Niall Peugeot 208 VTI R 2 27:11,6 +04:14,9 +00:01,8 3
46 75 VENTURINI Henri/CORONA Fabrice Peugeot 208 VTI R 2 27:12,4 +04:15,7 +00:00,8 3
47 52 JULIA David/AUBERTIN Ludovic Peugeot 206 Rc F2 14 27:14,3 +04:17,6 +00:01,9 1 2
48 23 FILLAYRE Jacques/DERRE Cyril Mitsubishi Lancer Evo4 FA 8 27:15,1 +04:18,4 +00:00,8
49 44 GUIGNARD Eric/MEFFRE Didier Subaru Impreza N 4 27:16,4 +04:19,7 +00:01,3
50 81 VIALLE Lilian/GHIRARDELLO Manuel Renault Clio R3 R 3 27:18,4 +04:21,7 +00:02,0 1 2
51 73 MOLLARD Alexandre/EYMIN PETOT Nicolas Peugeot 208 VTI R 2 27:26,6 +04:29,9 +00:08,2 3
52 25 GIORDANENGO Jimmy/DELAMOTTE Alexis Mitsubishi Lancer Evo7 FA 8 27:27,9 +04:31,2 +00:01,3
53 124 MASCLAUX Arnaud/CORMERAIS Loïc Renault Clio Ragnotti F2 14 27:31,8 +04:35,1 +00:03,9 1 2
54 86 MARCOBAL Thierry/MARCOBAL-BASTIDE Cantin Citroën Saxo T4 FA 6K 27:35,4 +04:38,7 +00:03,6
55 48 PRIOLO Laurent/DALMAS Yannick Mitsubishi Lancer Evo9 N 4 27:37,4 +04:40,7 +00:02,0
56 87 SALGUES Gilles/MOUYSSET Jérôme Citroën Saxo T4 FA 6K 27:38,5 +04:41,8 +00:01,1
57 79 JOUINES Rémi/BONICEL Adrien Peugeot 207 Rc R 3 27:39,9 +04:43,2 +00:01,4
58 46 LOPEZ Yannick/LOPEZ Brice Subaru Impreza WRX N 4 27:42,4 +04:45,7 +00:02,5
59 94 JOUINES Jean/CHABBERT Martin Opel Adam Rally R FR2 27:44,0 +04:47,3 +00:01,6
60 95 GOUY Quentin/THILLIEZ Quentin Citroën C2 R2 R 2 27:46,5 +04:49,8 +00:02,5
61 132 SABATIER Florent/SANTIAGO Thomas Peugeot 106 S16 FA 6 28:03,0 +05:06,3 +00:16,5 1 2
62 113 BLANCK Lionel/BLANCK Arnaud Peugeot 206 Rc F2 14 28:12,2 +05:15,5 +00:09,2
63 80 GUINCHARD Emmanuel/CHATELAIN Mickaël Peugeot 207 Rc R 3 28:13,4 +05:16,7 +00:01,2
64 69 AUTIERO Matthieu/ANDREU Axel Peugeot 208 VTI R 2 28:16,8 +05:20,1 +00:03,4 3
65 76 COLNEY Thierry/FORTMANN Patrick Citroën DS3 R3 R 3 28:25,9 +05:29,2 +00:09,1 1 2
66 89 CREPIN Maude/FRANCOIS Léa Citroën Saxo T4 FA 6K 28:28,8 +05:32,1 +00:02,9
67 71 RAMBAUD Sébastien/RICOU Brice Peugeot 208 VTI R 2 28:29,3 +05:32,6 +00:00,5 3
68 125 BELLIARDO Daniel/BRAQUET Jean-Baptiste Peugeot 306 S16 FN 3 28:29,7 +05:33,0 +00:00,4
69 99 FOTIA Anthony/MILLET Kévin Ford Fiesta R2 R 2 28:30,1 +05:33,4 +00:00,4
70 102 SOUFFEZ Frédéric/PRUVOST Astrid Peugeot 206 Rc FA 7 28:35,5 +05:38,8 +00:05,4 1 2
71 97 MARGAILLAN Hugo/POUJOL Sébastien Ford Fiesta R2 R 2 28:35,6 +05:38,9 +00:00,1
72 96 PUVERIC Gilles/LE BORGNE Didier Peugeot 208 VTI R 2 28:41,0 +05:44,3 +00:05,4
73 90 COLOMBE Geoffroy/FABREGUE Régis Peugeot 206 XS FA 6K 28:41,3 +05:44,6 +00:00,3
74 98 DEFANTE Romain/TEMPIER Romain Ford Fiesta R2 R 2 28:45,4 +05:48,7 +00:04,1
75 91 BERTON Charlotte/TAILLANDIER Thomas Citroën Saxo T4 FA 6K 28:50,0 +05:53,3 +00:04,6
76 85 GRIMAUD Roger/GRIMAUD Laurent Citroën Saxo T4 FA 6K 28:51,9 +05:55,2 +00:01,9
77 138 CAYLA Corentin/DUMAS Bastien Citroën Saxo VTS F2 13 28:53,8 +05:57,1 +00:01,9
78 28 GIL Stéphane/MORGET Arnaud Subaru Impreza WRX FA 8 29:00,5 +06:03,8 +00:06,7
79 149 RICHAUD Pascal/SENDJAKEDINE Mikael Suzuki Swift Sport FN 2 29:01,2 +06:04,5 +00:00,7 1 2
80 111 PILLARD Cédric/NOHARET Laurent Peugeot 206 Rc F2 14 29:01,8 +06:05,1 +00:00,6 1 2
81 107 ROCHER Arnaud/PAULHAN Sabine Renault Clio RS FA 7 29:02,9 +06:06,2 +00:01,1
82 115 MORARD Philippe/GROLIER Cédric Citroën ZX 16V F2 14 29:05,7 +06:09,0 +00:02,8
83 33 ROUGIER Régis/SOGNO Emilien Subaru Impreza WRX FA 8 29:06,1 +06:09,4 +00:00,4
84 77 DAZY Jean-Pierre/LOIZEAUX Didier Renault Clio R3 R 3 29:08,2 +06:11,5 +00:02,1 1 2
85 120 RIEU Vincent/DEIXONNE Charles Renault Clio Ragnotti F2 14 29:12,6 +06:15,9 +00:04,4
86 88 QUARROZ Damien/VOLPI Cécile Citroën Saxo T4 FA 6K 29:14,6 +06:17,9 +00:02,0
87 117 ROUCOULY Mathieu/GILHODES Jean-Louis Peugeot 309 GTI 16S F2 14 29:15,5 +06:18,8 +00:00,9
88 35 MORDACQ Laurent/MORTIER Hervé Mitsubishi Lancer Evo9 R 4 29:20,8 +06:24,1 +00:05,3 1
89 92 BRENIAUX Sébastien/JACQUES Anthony Peugeot 206 XS FA 6K 29:21,3 +06:24,6 +00:00,5
90 114 BOUZID Lilian/VERGNES Antony Peugeot 306 S16 F2 14 29:21,8 +06:25,1 +00:00,5
91 127 LESCURE Philippe/ESCAICH Bertrand Peugeot 306 S16 FN 3 29:22,2 +06:25,5 +00:00,4
92 112 REGORD Hervé/REGORD Camille Peugeot 205 GTI F2 14 29:37,5 +06:40,8 +00:15,3 1 2
93 135 RAMEL Olivier/BODENMANN Jacques-Victor Peugeot 106 GT FA 6 29:51,8 +06:55,1 +00:14,3
94 78 BOUCHET Guillaume/BLAMPEY Fabien Peugeot 207 Rc R 3 29:52,4 +06:55,7 +00:00,6
95 145 BRISSON Eddy/MASSON Pascal Suzuki Swift FN 2 29:53,3 +06:56,6 +00:00,9
96 134 RALITE Christophe/ABBAL Marie Peugeot 106 S16 FA 6 29:54,9 +06:58,2 +00:01,6
97 126 VANTILLARD Jean-Marc/DARRAS Pascaline Peugeot 206 Rc FN 3 29:59,5 +07:02,8 +00:04,6
98 45 ECK Jean-Luc/ECK Aurélien Subaru Impreza N 4 29:59,8 +07:03,1 +00:00,3
99 136 FOURNIER Nicolas/VATTEAU Kévin Peugeot 206 XS F2 13 30:09,4 +07:12,7 +00:09,6
100 123 BALMONET/MONICO Celia Peugeot 309 GTI F2 14 30:12,1 +07:15,4 +00:02,7
101 67 JAMET Jérémy/SECACHE Michaël Peugeot 208 VTI R 2 30:19,7 +07:23,0 +00:07,6 3
102 146 DOLGOPYATOFF Damien/FRANCOIS Solene Suzuki Swift FN 2 30:29,9 +07:33,2 +00:10,2
103 142 BRENGUES Jean-Marie/BRENGUES Mélanie Peugeot 205 GTI F2 13 30:51,4 +07:54,7 +00:21,5
104 139 GELY Michel/VALENTIN Cédric Peugeot 206 XS F2 13 31:07,8 +08:11,1 +00:16,4
105 106 GELLUSSEAU Luc/DEJOUX Charly Peugeot 306 S16 FA 7 31:10,2 +08:13,5 +00:02,4
106 148 LATIEZE Yvan/GOUY Cindy Peugeot 106 S16 FN 2 31:15,7 +08:19,0 +00:05,5
107 150 VAILLE Mickaël/SAVA-LOPEZ Sabrina Peugeot 205 GTI FN 2 31:16,7 +08:20,0 +00:01,0
108 129 GAGNEUR Hervé/LEIBENGUTH Christophe Peugeot 306 S16 FN 3 31:27,0 +08:30,3 +00:10,3
109 151 ROCHE Ivan/GREVOT Florian Peugeot 106 XSI F2 12 31:35,2 +08:38,5 +00:08,2 1 2
110 140 VAYSSE Adrien/LAURENS Clément Peugeot 106 S16 F2 13 31:37,7 +08:41,0 +00:02,5
111 144 TODESCHINI Florent/PORCHERON Giovanni Dacia Logan F2 13 31:41,0 +08:44,3 +00:03,3
112 152 VUITTENEZ Victorien/COTE COLISSON Maxime Peugeot 106 XSI FN 1 31:43,0 +08:46,3 +00:02,0
113 104 FRELAUT Yohann/CASSAGNADE Pascal Peugeot 206 Rc FA 7 31:57,4 +09:00,7 +00:14,4
114 122 VIDAL Marc/MONTARON Loïc Peugeot 309 GTI F2 14 32:02,4 +09:05,7 +00:05,0
115 110 CLEMENT Frédéric/COSTES François Peugeot 206 GT F2 14 32:04,9 +09:08,2 +00:02,5 1 2
116 153 CEUGNET Sébastien/LUCON Pascal Peugeot 106 XSI FN 1 32:09,1 +09:12,4 +00:04,2
117 137 RAKOTOMALALA Andry/GORGET Chloé Peugeot 106 S16 F2 13 32:24,0 +09:27,3 +00:14,9
118 47 CAMPAGNOLI Gabriele/ARENA Nicola Subaru Impreza WRX N 4 32:26,3 +09:29,6 +00:02,3
119 108 GUILLON Jean-Luc/GUILLON Thibault Peugeot 206 GT FA 7 32:27,4 +09:30,7 +00:01,1
120 105 GAUTHIER Bernard/BLANQUET Muriel Peugeot 306 S16 FA 7 32:34,7 +09:38,0 +00:07,3
121 130 RESSOUCHE Charlotte/BARDOUX Pauline Ford Fiesta ST N 3 32:55,7 +09:59,0 +00:21,0
122 26 GLEY Jean-Pierre/AUBANEL Aurélien B.M.W. 325 iX FA 8 33:24,9 +10:28,2 +00:29,2
123 154 BES Yves/LE PICHON Christelle Peugeot 106 XR F2 11 33:28,8 +10:32,1 +00:03,9
124 141 PICARD Erick/PONTILLE Hervé Dacia Logan F2 13 34:11,0 +11:14,3 +00:42,2
125 147 DI PAOLO Alain/MORILLON Frederika Peugeot 106 S16 FN 2 35:16,7 +12:20,0 +01:05,7
126 31 MARON-GIRARD Alain/GRENIER Bernard Mitsubishi Lancer Evo9 FA 8 35:31,8 +12:35,1 +00:15,1
127 155 SOUBIROUX Vincent/VIGUIE Florian Renault Clio F2 11 35:34,3 +12:37,6 +00:02,5
128 119 MOULIN François/BONNET Dorine Renault Clio RS F2 14 44:27,4 +21:30,7 +08:53,1
129 103 TEVELLE Cédric/FACCIO Alexandra Peugeot 206 Rc FA 7 49:27,9 +26:31,2 +05:00,5
130 118 SANHES Yves/SANHES Christine B.M.W. 318i Compact F2 14 52:49,9 +29:53,2 +03:22,0
Clt Equipage Voiture Gr/Cl Temps Ecart 1er Ecart préc. Catégories
Commentaires: © PatricK Soft  
(Temps forfaitaires=couleur bleue)
Classés:130

Epreuve: Groupe: Catégorie:

 
Retour
Classement après ES3-Gelles - Mas de Cance (21.000 km)